sensor_id;sensor_type;location;lat;lon;timestamp;P1;durP1;ratioP1;P2;durP2;ratioP2
34060;SDS011;20336;-33.424;-70.638;2024-03-02T13:56:19;38.22;;;10.38;;
34060;SDS011;20336;-33.424;-70.638;2024-03-02T13:58:46;35.40;;;11.00;;
34060;SDS011;20336;-33.424;-70.638;2024-03-02T14:01:13;25.35;;;9.38;;
34060;SDS011;20336;-33.424;-70.638;2024-03-02T14:03:40;26.13;;;9.57;;
34060;SDS011;20336;-33.424;-70.638;2024-03-02T14:06:07;29.70;;;9.43;;
34060;SDS011;20336;-33.424;-70.638;2024-03-02T14:08:34;27.40;;;8.35;;
34060;SDS011;20336;-33.424;-70.638;2024-03-02T14:11:01;25.52;;;9.60;;
34060;SDS011;20336;-33.424;-70.638;2024-03-02T14:13:28;32.33;;;8.43;;
34060;SDS011;20336;-33.424;-70.638;2024-03-02T14:15:55;27.95;;;9.32;;
34060;SDS011;20336;-33.424;-70.638;2024-03-02T14:18:23;26.70;;;9.27;;
34060;SDS011;20336;-33.424;-70.638;2024-03-02T14:20:50;20.75;;;7.18;;
34060;SDS011;20336;-33.424;-70.638;2024-03-02T14:23:18;22.77;;;7.93;;
34060;SDS011;20336;-33.424;-70.638;2024-03-02T14:25:46;25.92;;;7.25;;
34060;SDS011;20336;-33.424;-70.638;2024-03-02T14:28:13;20.92;;;8.18;;
34060;SDS011;20336;-33.424;-70.638;2024-03-02T14:30:41;34.22;;;8.75;;
34060;SDS011;20336;-33.424;-70.638;2024-03-02T14:33:08;21.45;;;7.80;;
34060;SDS011;20336;-33.424;-70.638;2024-03-02T14:35:36;26.08;;;6.97;;
34060;SDS011;20336;-33.424;-70.638;2024-03-02T14:38:03;22.75;;;7.60;;
34060;SDS011;20336;-33.424;-70.638;2024-03-02T14:40:30;28.70;;;7.72;;
34060;SDS011;20336;-33.424;-70.638;2024-03-02T14:42:57;25.83;;;7.10;;
34060;SDS011;20336;-33.424;-70.638;2024-03-02T14:45:24;30.13;;;8.32;;
34060;SDS011;20336;-33.424;-70.638;2024-03-02T14:47:51;23.98;;;6.85;;
34060;SDS011;20336;-33.424;-70.638;2024-03-02T14:50:19;30.05;;;8.30;;
34060;SDS011;20336;-33.424;-70.638;2024-03-02T14:52:46;23.60;;;8.13;;
34060;SDS011;20336;-33.424;-70.638;2024-03-02T14:55:13;26.85;;;7.32;;
34060;SDS011;20336;-33.424;-70.638;2024-03-02T14:57:40;20.27;;;6.80;;
34060;SDS011;20336;-33.424;-70.638;2024-03-02T15:00:07;29.65;;;7.95;;
34060;SDS011;20336;-33.424;-70.638;2024-03-02T15:02:37;30.48;;;7.63;;
34060;SDS011;20336;-33.424;-70.638;2024-03-02T15:05:04;21.70;;;6.55;;
34060;SDS011;20336;-33.424;-70.638;2024-03-02T15:07:34;30.30;;;7.43;;
34060;SDS011;20336;-33.424;-70.638;2024-03-02T15:10:01;34.35;;;6.43;;
34060;SDS011;20336;-33.424;-70.638;2024-03-02T15:12:29;16.70;;;6.05;;
34060;SDS011;20336;-33.424;-70.638;2024-03-02T15:14:56;21.92;;;5.95;;
34060;SDS011;20336;-33.424;-70.638;2024-03-02T15:17:24;22.90;;;5.78;;
34060;SDS011;20336;-33.424;-70.638;2024-03-02T15:19:51;15.95;;;5.25;;
34060;SDS011;20336;-33.424;-70.638;2024-03-02T15:22:18;22.80;;;5.15;;
34060;SDS011;20336;-33.424;-70.638;2024-03-02T15:30:25;27.92;;;6.38;;
34060;SDS011;20336;-33.424;-70.638;2024-03-02T15:32:52;18.23;;;5.47;;
34060;SDS011;20336;-33.424;-70.638;2024-03-02T15:35:19;19.25;;;6.07;;
34060;SDS011;20336;-33.424;-70.638;2024-03-02T15:37:46;19.50;;;4.95;;
34060;SDS011;20336;-33.424;-70.638;2024-03-02T15:40:13;19.98;;;5.60;;
34060;SDS011;20336;-33.424;-70.638;2024-03-02T15:42:40;25.55;;;6.43;;
34060;SDS011;20336;-33.424;-70.638;2024-03-02T15:45:07;19.15;;;5.57;;
34060;SDS011;20336;-33.424;-70.638;2024-03-02T15:47:34;15.98;;;5.13;;
34060;SDS011;20336;-33.424;-70.638;2024-03-02T15:50:02;17.20;;;4.47;;
34060;SDS011;20336;-33.424;-70.638;2024-03-02T15:52:32;22.67;;;5.60;;
34060;SDS011;20336;-33.424;-70.638;2024-03-02T15:54:59;21.70;;;5.22;;
34060;SDS011;20336;-33.424;-70.638;2024-03-02T15:57:27;19.10;;;4.97;;
34060;SDS011;20336;-33.424;-70.638;2024-03-02T15:59:54;21.92;;;4.80;;
34060;SDS011;20336;-33.424;-70.638;2024-03-02T16:02:21;22.33;;;5.25;;
34060;SDS011;20336;-33.424;-70.638;2024-03-02T16:04:48;22.83;;;4.43;;
34060;SDS011;20336;-33.424;-70.638;2024-03-02T16:07:15;19.52;;;4.78;;
34060;SDS011;20336;-33.424;-70.638;2024-03-02T16:09:42;18.10;;;4.35;;
34060;SDS011;20336;-33.424;-70.638;2024-03-02T16:12:09;20.45;;;4.95;;
34060;SDS011;20336;-33.424;-70.638;2024-03-02T16:14:36;16.50;;;4.68;;
34060;SDS011;20336;-33.424;-70.638;2024-03-02T16:17:03;19.70;;;4.53;;
34060;SDS011;20336;-33.424;-70.638;2024-03-02T16:19:30;31.85;;;12.98;;
34060;SDS011;20336;-33.424;-70.638;2024-03-02T16:21:57;18.52;;;4.80;;
34060;SDS011;20336;-33.424;-70.638;2024-03-02T16:24:24;15.38;;;3.92;;
34060;SDS011;20336;-33.424;-70.638;2024-03-02T16:26:51;17.00;;;4.22;;
34060;SDS011;20336;-33.424;-70.638;2024-03-02T16:29:18;16.17;;;5.38;;
34060;SDS011;20336;-33.424;-70.638;2024-03-02T16:31:45;16.77;;;4.07;;
34060;SDS011;20336;-33.424;-70.638;2024-03-02T16:34:12;11.38;;;3.40;;
34060;SDS011;20336;-33.424;-70.638;2024-03-02T16:36:39;13.68;;;3.25;;
34060;SDS011;20336;-33.424;-70.638;2024-03-02T16:39:08;15.52;;;4.35;;
34060;SDS011;20336;-33.424;-70.638;2024-03-02T16:41:37;17.77;;;4.07;;
34060;SDS011;20336;-33.424;-70.638;2024-03-02T16:44:08;18.25;;;4.20;;
34060;SDS011;20336;-33.424;-70.638;2024-03-02T16:46:35;14.88;;;3.83;;
34060;SDS011;20336;-33.424;-70.638;2024-03-02T16:49:04;16.58;;;3.95;;
34060;SDS011;20336;-33.424;-70.638;2024-03-02T16:51:30;14.95;;;4.03;;
34060;SDS011;20336;-33.424;-70.638;2024-03-02T16:54:04;17.75;;;3.80;;
34060;SDS011;20336;-33.424;-70.638;2024-03-02T16:56:41;15.27;;;5.22;;
34060;SDS011;20336;-33.424;-70.638;2024-03-02T16:59:09;11.32;;;3.72;;
34060;SDS011;20336;-33.424;-70.638;2024-03-02T17:01:36;16.70;;;4.97;;
34060;SDS011;20336;-33.424;-70.638;2024-03-02T17:04:03;18.95;;;4.70;;
34060;SDS011;20336;-33.424;-70.638;2024-03-02T17:06:31;19.80;;;4.32;;
34060;SDS011;20336;-33.424;-70.638;2024-03-02T17:08:58;24.17;;;3.80;;
34060;SDS011;20336;-33.424;-70.638;2024-03-02T17:11:25;20.35;;;4.22;;
34060;SDS011;20336;-33.424;-70.638;2024-03-02T17:13:52;14.20;;;3.97;;
34060;SDS011;20336;-33.424;-70.638;2024-03-02T17:16:23;12.45;;;4.38;;
34060;SDS011;20336;-33.424;-70.638;2024-03-02T17:18:50;15.65;;;4.00;;
34060;SDS011;20336;-33.424;-70.638;2024-03-02T17:21:17;13.43;;;3.95;;
34060;SDS011;20336;-33.424;-70.638;2024-03-02T17:23:45;19.25;;;3.75;;
34060;SDS011;20336;-33.424;-70.638;2024-03-02T17:26:12;11.15;;;3.20;;
34060;SDS011;20336;-33.424;-70.638;2024-03-02T17:28:39;15.63;;;3.42;;
34060;SDS011;20336;-33.424;-70.638;2024-03-02T17:31:07;9.82;;;3.28;;
34060;SDS011;20336;-33.424;-70.638;2024-03-02T17:33:34;12.23;;;2.70;;
34060;SDS011;20336;-33.424;-70.638;2024-03-02T17:36:01;18.05;;;3.63;;
34060;SDS011;20336;-33.424;-70.638;2024-03-02T17:38:29;14.75;;;2.90;;
34060;SDS011;20336;-33.424;-70.638;2024-03-02T17:40:56;23.08;;;3.75;;
34060;SDS011;20336;-33.424;-70.638;2024-03-02T17:43:23;11.02;;;3.05;;
34060;SDS011;20336;-33.424;-70.638;2024-03-02T17:45:50;14.88;;;3.30;;
34060;SDS011;20336;-33.424;-70.638;2024-03-02T17:48:18;15.52;;;3.55;;
34060;SDS011;20336;-33.424;-70.638;2024-03-02T17:50:47;12.70;;;2.80;;
34060;SDS011;20336;-33.424;-70.638;2024-03-02T17:53:14;6.65;;;2.38;;
34060;SDS011;20336;-33.424;-70.638;2024-03-02T17:55:41;12.32;;;2.63;;
34060;SDS011;20336;-33.424;-70.638;2024-03-02T17:58:08;10.27;;;2.38;;
34060;SDS011;20336;-33.424;-70.638;2024-03-02T18:00:35;11.70;;;2.40;;
34060;SDS011;20336;-33.424;-70.638;2024-03-02T18:03:03;12.15;;;2.50;;
34060;SDS011;20336;-33.424;-70.638;2024-03-02T18:05:31;6.90;;;2.42;;
34060;SDS011;20336;-33.424;-70.638;2024-03-02T18:07:58;12.35;;;2.83;;
34060;SDS011;20336;-33.424;-70.638;2024-03-02T18:10:25;12.45;;;2.25;;
34060;SDS011;20336;-33.424;-70.638;2024-03-02T18:12:54;7.72;;;2.03;;
34060;SDS011;20336;-33.424;-70.638;2024-03-02T18:15:22;11.02;;;2.58;;
34060;SDS011;20336;-33.424;-70.638;2024-03-02T18:17:50;15.52;;;2.67;;
34060;SDS011;20336;-33.424;-70.638;2024-03-02T18:20:16;13.20;;;2.30;;
34060;SDS011;20336;-33.424;-70.638;2024-03-02T18:28:51;8.75;;;2.58;;
34060;SDS011;20336;-33.424;-70.638;2024-03-02T18:31:19;9.82;;;2.10;;
34060;SDS011;20336;-33.424;-70.638;2024-03-02T18:33:47;9.32;;;2.20;;
34060;SDS011;20336;-33.424;-70.638;2024-03-02T18:36:14;9.75;;;2.30;;
34060;SDS011;20336;-33.424;-70.638;2024-03-02T18:38:41;14.48;;;2.70;;
34060;SDS011;20336;-33.424;-70.638;2024-03-02T18:41:08;11.35;;;2.50;;
34060;SDS011;20336;-33.424;-70.638;2024-03-02T18:43:35;13.35;;;2.83;;
34060;SDS011;20336;-33.424;-70.638;2024-03-02T18:46:02;15.52;;;2.53;;
34060;SDS011;20336;-33.424;-70.638;2024-03-02T18:48:35;13.00;;;3.10;;
34060;SDS011;20336;-33.424;-70.638;2024-03-02T18:51:10;22.15;;;2.85;;
34060;SDS011;20336;-33.424;-70.638;2024-03-02T18:53:37;17.90;;;3.15;;
34060;SDS011;20336;-33.424;-70.638;2024-03-02T18:56:04;16.15;;;2.65;;
34060;SDS011;20336;-33.424;-70.638;2024-03-02T18:58:31;10.73;;;2.95;;
34060;SDS011;20336;-33.424;-70.638;2024-03-02T19:00:58;13.02;;;2.53;;
34060;SDS011;20336;-33.424;-70.638;2024-03-02T19:03:25;13.38;;;2.42;;
